sensor_id;sensor_type;location;lat;lon;timestamp;P1;durP1;ratioP1;P2;durP2;ratioP2
37275;SDS011;23166;51.150;21.620;2022-08-07T00:01:36;4.08;;;1.62;;
37275;SDS011;23166;51.150;21.620;2022-08-07T00:04:03;3.67;;;1.90;;
37275;SDS011;23166;51.150;21.620;2022-08-07T00:06:30;3.17;;;1.30;;
37275;SDS011;23166;51.150;21.620;2022-08-07T00:08:57;1.75;;;1.30;;
37275;SDS011;23166;51.150;21.620;2022-08-07T00:11:23;1.62;;;1.52;;
37275;SDS011;23166;51.150;21.620;2022-08-07T00:13:49;4.50;;;2.10;;
37275;SDS011;23166;51.150;21.620;2022-08-07T00:16:16;2.90;;;1.87;;
37275;SDS011;23166;51.150;21.620;2022-08-07T00:18:42;2.15;;;1.57;;
37275;SDS011;23166;51.150;21.620;2022-08-07T00:21:09;3.12;;;1.30;;
37275;SDS011;23166;51.150;21.620;2022-08-07T00:23:37;2.52;;;1.77;;
37275;SDS011;23166;51.150;21.620;2022-08-07T00:26:05;5.45;;;2.45;;
37275;SDS011;23166;51.150;21.620;2022-08-07T00:28:33;4.47;;;1.82;;
37275;SDS011;23166;51.150;21.620;2022-08-07T00:31:01;2.95;;;1.80;;
37275;SDS011;23166;51.150;21.620;2022-08-07T00:33:28;2.45;;;1.80;;
37275;SDS011;23166;51.150;21.620;2022-08-07T00:35:55;6.12;;;1.60;;
37275;SDS011;23166;51.150;21.620;2022-08-07T00:38:21;2.20;;;1.75;;
37275;SDS011;23166;51.150;21.620;2022-08-07T00:43:15;4.28;;;1.80;;
37275;SDS011;23166;51.150;21.620;2022-08-07T00:45:42;3.08;;;1.92;;
37275;SDS011;23166;51.150;21.620;2022-08-07T00:48:09;2.87;;;1.82;;
37275;SDS011;23166;51.150;21.620;2022-08-07T00:50:36;2.62;;;2.35;;
37275;SDS011;23166;51.150;21.620;2022-08-07T00:53:04;2.55;;;1.62;;
37275;SDS011;23166;51.150;21.620;2022-08-07T00:55:31;2.58;;;1.85;;
37275;SDS011;23166;51.150;21.620;2022-08-07T00:57:58;6.60;;;2.30;;
37275;SDS011;23166;51.150;21.620;2022-08-07T01:00:24;4.00;;;1.50;;
37275;SDS011;23166;51.150;21.620;2022-08-07T01:02:51;3.95;;;2.22;;
37275;SDS011;23166;51.150;21.620;2022-08-07T01:05:17;4.47;;;2.10;;
37275;SDS011;23166;51.150;21.620;2022-08-07T01:07:45;1.45;;;1.32;;
37275;SDS011;23166;51.150;21.620;2022-08-07T01:10:12;1.52;;;1.17;;
37275;SDS011;23166;51.150;21.620;2022-08-07T01:12:39;3.70;;;1.72;;
37275;SDS011;23166;51.150;21.620;2022-08-07T01:15:07;2.65;;;1.67;;
37275;SDS011;23166;51.150;21.620;2022-08-07T01:17:34;2.65;;;1.35;;
37275;SDS011;23166;51.150;21.620;2022-08-07T01:22:29;4.22;;;1.85;;
37275;SDS011;23166;51.150;21.620;2022-08-07T01:24:56;2.37;;;1.60;;
37275;SDS011;23166;51.150;21.620;2022-08-07T01:27:24;2.47;;;1.52;;
37275;SDS011;23166;51.150;21.620;2022-08-07T01:29:50;2.80;;;1.52;;
37275;SDS011;23166;51.150;21.620;2022-08-07T01:32:17;11.57;;;1.72;;
37275;SDS011;23166;51.150;21.620;2022-08-07T01:34:44;2.37;;;1.45;;
37275;SDS011;23166;51.150;21.620;2022-08-07T01:37:11;4.28;;;1.70;;
37275;SDS011;23166;51.150;21.620;2022-08-07T01:39:39;2.50;;;1.70;;
37275;SDS011;23166;51.150;21.620;2022-08-07T01:42:06;4.20;;;2.33;;
37275;SDS011;23166;51.150;21.620;2022-08-07T01:44:32;4.58;;;1.90;;
37275;SDS011;23166;51.150;21.620;2022-08-07T01:46:59;3.20;;;2.00;;
37275;SDS011;23166;51.150;21.620;2022-08-07T01:49:26;4.95;;;2.45;;
37275;SDS011;23166;51.150;21.620;2022-08-07T01:51:52;3.50;;;1.47;;
37275;SDS011;23166;51.150;21.620;2022-08-07T01:54:20;4.35;;;1.45;;
37275;SDS011;23166;51.150;21.620;2022-08-07T01:59:24;3.62;;;1.60;;
37275;SDS011;23166;51.150;21.620;2022-08-07T02:01:58;5.50;;;1.95;;
37275;SDS011;23166;51.150;21.620;2022-08-07T02:04:27;1.37;;;1.07;;
37275;SDS011;23166;51.150;21.620;2022-08-07T02:07:02;1.37;;;1.27;;
37275;SDS011;23166;51.150;21.620;2022-08-07T02:09:30;3.27;;;1.17;;
37275;SDS011;23166;51.150;21.620;2022-08-07T02:11:57;3.27;;;1.17;;
37275;SDS011;23166;51.150;21.620;2022-08-07T02:14:28;2.42;;;1.62;;
37275;SDS011;23166;51.150;21.620;2022-08-07T02:16:55;1.22;;;1.10;;
37275;SDS011;23166;51.150;21.620;2022-08-07T02:19:22;2.02;;;1.35;;
37275;SDS011;23166;51.150;21.620;2022-08-07T02:24:17;4.75;;;1.52;;
37275;SDS011;23166;51.150;21.620;2022-08-07T02:26:44;1.57;;;1.47;;
37275;SDS011;23166;51.150;21.620;2022-08-07T02:29:12;1.22;;;1.12;;
37275;SDS011;23166;51.150;21.620;2022-08-07T02:31:39;1.45;;;1.20;;
37275;SDS011;23166;51.150;21.620;2022-08-07T02:34:05;1.60;;;1.10;;
37275;SDS011;23166;51.150;21.620;2022-08-07T02:36:33;1.02;;;0.95;;
37275;SDS011;23166;51.150;21.620;2022-08-07T02:39:02;2.30;;;1.40;;
37275;SDS011;23166;51.150;21.620;2022-08-07T02:41:30;1.10;;;1.02;;
37275;SDS011;23166;51.150;21.620;2022-08-07T02:43:57;1.17;;;0.80;;
37275;SDS011;23166;51.150;21.620;2022-08-07T02:46:26;2.05;;;0.95;;
37275;SDS011;23166;51.150;21.620;2022-08-07T02:48:55;4.17;;;1.40;;
37275;SDS011;23166;51.150;21.620;2022-08-07T02:51:21;2.75;;;1.05;;
37275;SDS011;23166;51.150;21.620;2022-08-07T02:53:50;1.50;;;1.30;;
37275;SDS011;23166;51.150;21.620;2022-08-07T02:56:20;1.15;;;1.00;;
37275;SDS011;23166;51.150;21.620;2022-08-07T02:58:48;2.05;;;1.07;;
37275;SDS011;23166;51.150;21.620;2022-08-07T03:01:17;1.12;;;0.93;;
37275;SDS011;23166;51.150;21.620;2022-08-07T03:03:46;0.98;;;0.90;;
37275;SDS011;23166;51.150;21.620;2022-08-07T03:06:13;2.58;;;0.90;;
37275;SDS011;23166;51.150;21.620;2022-08-07T03:08:41;2.12;;;0.90;;
37275;SDS011;23166;51.150;21.620;2022-08-07T03:11:08;1.80;;;1.20;;
37275;SDS011;23166;51.150;21.620;2022-08-07T03:13:35;1.37;;;1.07;;
37275;SDS011;23166;51.150;21.620;2022-08-07T03:16:02;1.55;;;1.15;;
37275;SDS011;23166;51.150;21.620;2022-08-07T03:18:28;4.30;;;1.70;;
37275;SDS011;23166;51.150;21.620;2022-08-07T03:20:55;2.05;;;1.62;;
37275;SDS011;23166;51.150;21.620;2022-08-07T03:23:22;0.80;;;0.80;;
37275;SDS011;23166;51.150;21.620;2022-08-07T03:25:51;2.60;;;1.20;;
37275;SDS011;23166;51.150;21.620;2022-08-07T03:28:20;2.80;;;0.90;;
37275;SDS011;23166;51.150;21.620;2022-08-07T03:33:15;2.77;;;1.40;;
37275;SDS011;23166;51.150;21.620;2022-08-07T03:35:43;1.10;;;1.00;;
37275;SDS011;23166;51.150;21.620;2022-08-07T03:38:11;1.25;;;0.85;;
37275;SDS011;23166;51.150;21.620;2022-08-07T03:43:05;0.93;;;0.82;;
37275;SDS011;23166;51.150;21.620;2022-08-07T03:45:32;4.15;;;1.45;;
37275;SDS011;23166;51.150;21.620;2022-08-07T03:47:59;1.80;;;1.22;;
37275;SDS011;23166;51.150;21.620;2022-08-07T03:52:53;0.60;;;0.60;;
37275;SDS011;23166;51.150;21.620;2022-08-07T03:55:23;0.60;;;0.60;;
37275;SDS011;23166;51.150;21.620;2022-08-07T03:57:49;1.60;;;0.85;;
37275;SDS011;23166;51.150;21.620;2022-08-07T04:00:17;0.68;;;0.47;;
37275;SDS011;23166;51.150;21.620;2022-08-07T04:02:44;0.75;;;0.37;;
37275;SDS011;23166;51.150;21.620;2022-08-07T04:05:10;0.80;;;0.80;;
37275;SDS011;23166;51.150;21.620;2022-08-07T04:07:37;3.00;;;1.50;;
37275;SDS011;23166;51.150;21.620;2022-08-07T04:10:12;1.27;;;0.90;;
37275;SDS011;23166;51.150;21.620;2022-08-07T04:12:38;2.47;;;0.80;;
37275;SDS011;23166;51.150;21.620;2022-08-07T04:15:06;1.80;;;0.72;;
37275;SDS011;23166;51.150;21.620;2022-08-07T04:17:34;0.70;;;0.68;;
37275;SDS011;23166;51.150;21.620;2022-08-07T04:20:00;3.72;;;1.07;;
37275;SDS011;23166;51.150;21.620;2022-08-07T04:22:27;3.17;;;0.95;;
37275;SDS011;23166;51.150;21.620;2022-08-07T04:24:54;2.87;;;0.93;;
37275;SDS011;23166;51.150;21.620;2022-08-07T04:27:21;1.22;;;0.93;;
37275;SDS011;23166;51.150;21.620;2022-08-07T04:29:47;1.17;;;0.65;;
37275;SDS011;23166;51.150;21.620;2022-08-07T04:32:14;1.95;;;0.82;;
37275;SDS011;23166;51.150;21.620;2022-08-07T04:37:07;2.65;;;1.22;;
37275;SDS011;23166;51.150;21.620;2022-08-07T04:39:33;2.33;;;1.27;;
37275;SDS011;23166;51.150;21.620;2022-08-07T04:42:01;4.15;;;1.92;;
37275;SDS011;23166;51.150;21.620;2022-08-07T04:44:28;1.90;;;1.17;;
37275;SDS011;23166;51.150;21.620;2022-08-07T04:46:58;1.65;;;0.90;;
37275;SDS011;23166;51.150;21.620;2022-08-07T04:54:44;4.30;;;1.98;;
37275;SDS011;23166;51.150;21.620;2022-08-07T05:00:13;4.53;;;1.98;;
37275;SDS011;23166;51.150;21.620;2022-08-07T05:05:33;3.45;;;1.80;;
37275;SDS011;23166;51.150;21.620;2022-08-07T05:08:00;3.62;;;1.75;;
37275;SDS011;23166;51.150;21.620;2022-08-07T05:13:07;4.97;;;1.98;;
37275;SDS011;23166;51.150;21.620;2022-08-07T05:15:40;2.83;;;1.60;;
37275;SDS011;23166;51.150;21.620;2022-08-07T05:18:09;2.80;;;1.85;;
37275;SDS011;23166;51.150;21.620;2022-08-07T05:20:52;4.35;;;1.85;;
37275;SDS011;23166;51.150;21.620;2022-08-07T05:23:39;6.55;;;1.75;;
37275;SDS011;23166;51.150;21.620;2022-08-07T05:26:03;3.25;;;1.45;;
37275;SDS011;23166;51.150;21.620;2022-08-07T05:28:30;1.85;;;1.52;;
37275;SDS011;23166;51.150;21.620;2022-08-07T05:30:59;3.15;;;1.15;;
37275;SDS011;23166;51.150;21.620;2022-08-07T05:33:27;7.62;;;1.32;;
37275;SDS011;23166;51.150;21.620;2022-08-07T05:35:55;3.02;;;1.52;;
37275;SDS011;23166;51.150;21.620;2022-08-07T05:38:23;1.27;;;1.17;;
37275;SDS011;23166;51.150;21.620;2022-08-07T05:40:50;1.65;;;0.80;;
37275;SDS011;23166;51.150;21.620;2022-08-07T05:43:17;1.27;;;1.05;;
37275;SDS011;23166;51.150;21.620;2022-08-07T05:45:44;1.98;;;1.17;;
37275;SDS011;23166;51.150;21.620;2022-08-07T05:48:12;4.00;;;1.37;;
37275;SDS011;23166;51.150;21.620;2022-08-07T05:50:39;4.45;;;1.27;;
37275;SDS011;23166;51.150;21.620;2022-08-07T05:53:06;2.83;;;0.90;;
37275;SDS011;23166;51.150;21.620;2022-08-07T05:55:33;2.05;;;0.93;;
37275;SDS011;23166;51.150;21.620;2022-08-07T05:58:00;1.52;;;1.05;;
37275;SDS011;23166;51.150;21.620;2022-08-07T06:00:28;0.72;;;0.72;;
37275;SDS011;23166;51.150;21.620;2022-08-07T06:02:58;3.95;;;0.72;;
37275;SDS011;23166;51.150;21.620;2022-08-07T06:05:26;0.82;;;0.68;;
37275;SDS011;23166;51.150;21.620;2022-08-07T06:07:54;1.85;;;0.95;;
37275;SDS011;23166;51.150;21.620;2022-08-07T06:10:21;0.85;;;0.72;;
37275;SDS011;23166;51.150;21.620;2022-08-07T06:12:48;2.30;;;1.05;;
37275;SDS011;23166;51.150;21.620;2022-08-07T06:15:15;5.70;;;0.80;;
37275;SDS011;23166;51.150;21.620;2022-08-07T06:17:43;1.47;;;1.20;;
37275;SDS011;23166;51.150;21.620;2022-08-07T06:20:10;2.05;;;0.88;;
37275;SDS011;23166;51.150;21.620;2022-08-07T06:22:38;3.77;;;1.40;;
37275;SDS011;23166;51.150;21.620;2022-08-07T06:25:07;3.05;;;1.75;;
37275;SDS011;23166;51.150;21.620;2022-08-07T06:27:34;0.80;;;0.80;;
37275;SDS011;23166;51.150;21.620;2022-08-07T06:30:01;3.62;;;1.00;;
37275;SDS011;23166;51.150;21.620;2022-08-07T06:34:54;1.95;;;0.62;;
37275;SDS011;23166;51.150;21.620;2022-08-07T06:37:20;7.35;;;1.60;;
37275;SDS011;23166;51.150;21.620;2022-08-07T06:39:48;1.67;;;0.57;;
37275;SDS011;23166;51.150;21.620;2022-08-07T06:42:23;1.35;;;0.68;;
37275;SDS011;23166;51.150;21.620;2022-08-07T06:44:51;0.57;;;0.57;;
37275;SDS011;23166;51.150;21.620;2022-08-07T06:47:19;1.60;;;0.78;;
37275;SDS011;23166;51.150;21.620;2022-08-07T06:49:49;0.80;;;0.70;;
37275;SDS011;23166;51.150;21.620;2022-08-07T06:52:15;3.92;;;0.82;;
37275;SDS011;23166;51.150;21.620;2022-08-07T06:54:43;1.98;;;0.93;;
37275;SDS011;23166;51.150;21.620;2022-08-07T06:57:14;2.10;;;0.70;;
37275;SDS011;23166;51.150;21.620;2022-08-07T06:59:41;1.92;;;0.70;;
37275;SDS011;23166;51.150;21.620;2022-08-07T07:02:18;2.22;;;0.65;;
37275;SDS011;23166;51.150;21.620;2022-08-07T07:04:45;1.35;;;0.90;;
37275;SDS011;23166;51.150;21.620;2022-08-07T07:07:13;5.17;;;1.22;;
37275;SDS011;23166;51.150;21.620;2022-08-07T07:09:46;0.50;;;0.50;;
37275;SDS011;23166;51.150;21.620;2022-08-07T07:15:04;1.07;;;0.72;;
37275;SDS011;23166;51.150;21.620;2022-08-07T07:17:33;0.90;;;0.50;;
37275;SDS011;23166;51.150;21.620;2022-08-07T07:20:15;1.20;;;0.60;;
37275;SDS011;23166;51.150;21.620;2022-08-07T07:22:44;1.27;;;0.70;;
37275;SDS011;23166;51.150;21.620;2022-08-07T07:25:12;6.15;;;1.98;;
37275;SDS011;23166;51.150;21.620;2022-08-07T07:27:45;2.83;;;0.88;;
37275;SDS011;23166;51.150;21.620;2022-08-07T07:32:55;1.25;;;0.80;;
37275;SDS011;23166;51.150;21.620;2022-08-07T07:35:24;0.40;;;0.40;;
37275;SDS011;23166;51.150;21.620;2022-08-07T07:37:53;2.22;;;0.93;;
37275;SDS011;23166;51.150;21.620;2022-08-07T07:40:20;1.95;;;0.98;;
37275;SDS011;23166;51.150;21.620;2022-08-07T07:42:49;2.55;;;0.80;;
37275;SDS011;23166;51.150;21.620;2022-08-07T07:45:18;2.27;;;0.98;;
37275;SDS011;23166;51.150;21.620;2022-08-07T07:47:47;5.92;;;1.62;;
37275;SDS011;23166;51.150;21.620;2022-08-07T07:50:20;6.35;;;1.82;;
37275;SDS011;23166;51.150;21.620;2022-08-07T07:52:48;4.33;;;1.40;;
37275;SDS011;23166;51.150;21.620;2022-08-07T07:55:17;2.87;;;1.37;;
37275;SDS011;23166;51.150;21.620;2022-08-07T07:57:45;2.98;;;1.37;;
37275;SDS011;23166;51.150;21.620;2022-08-07T08:00:16;3.20;;;1.57;;
37275;SDS011;23166;51.150;21.620;2022-08-07T08:02:44;2.30;;;1.12;;
37275;SDS011;23166;51.150;21.620;2022-08-07T08:05:13;5.87;;;1.52;;
37275;SDS011;23166;51.150;21.620;2022-08-07T08:07:42;5.78;;;1.30;;
37275;SDS011;23166;51.150;21.620;2022-08-07T08:10:10;2.47;;;1.02;;
37275;SDS011;23166;51.150;21.620;2022-08-07T08:12:38;4.12;;;1.70;;
37275;SDS011;23166;51.150;21.620;2022-08-07T08:17:34;2.85;;;1.00;;
37275;SDS011;23166;51.150;21.620;2022-08-07T08:20:04;10.18;;;1.57;;
37275;SDS011;23166;51.150;21.620;2022-08-07T08:22:34;3.33;;;0.60;;
37275;SDS011;23166;51.150;21.620;2022-08-07T08:25:21;1.92;;;0.33;;
37275;SDS011;23166;51.150;21.620;2022-08-07T08:30:36;2.27;;;0.40;;
37275;SDS011;23166;51.150;21.620;2022-08-07T08:33:04;0.53;;;0.40;;
37275;SDS011;23166;51.150;21.620;2022-08-07T08:35:32;2.35;;;0.55;;
37275;SDS011;23166;51.150;21.620;2022-08-07T08:38:01;0.23;;;0.23;;
37275;SDS011;23166;51.150;21.620;2022-08-07T08:43:34;0.82;;;0.37;;
37275;SDS011;23166;51.150;21.620;2022-08-07T08:49:15;0.95;;;0.40;;
37275;SDS011;23166;51.150;21.620;2022-08-07T08:51:54;1.05;;;0.65;;
37275;SDS011;23166;51.150;21.620;2022-08-07T08:54:25;0.75;;;0.45;;
37275;SDS011;23166;51.150;21.620;2022-08-07T08:56:57;4.28;;;0.45;;
37275;SDS011;23166;51.150;21.620;2022-08-07T08:59:32;0.65;;;0.50;;
37275;SDS011;23166;51.150;21.620;2022-08-07T09:02:06;0.90;;;0.53;;
37275;SDS011;23166;51.150;21.620;2022-08-07T09:04:53;0.72;;;0.42;;
37275;SDS011;23166;51.150;21.620;2022-08-07T09:07:28;0.25;;;0.20;;
37275;SDS011;23166;51.150;21.620;2022-08-07T09:15:38;0.50;;;0.40;;
37275;SDS011;23166;51.150;21.620;2022-08-07T09:18:15;0.30;;;0.30;;
37275;SDS011;23166;51.150;21.620;2022-08-07T09:21:05;0.50;;;0.50;;
37275;SDS011;23166;51.150;21.620;2022-08-07T09:29:05;0.57;;;0.37;;
37275;SDS011;23166;51.150;21.620;2022-08-07T09:36:59;1.45;;;0.40;;
37275;SDS011;23166;51.150;21.620;2022-08-07T09:45:11;3.25;;;0.80;;
37275;SDS011;23166;51.150;21.620;2022-08-07T09:50:44;2.17;;;1.30;;
37275;SDS011;23166;51.150;21.620;2022-08-07T09:53:26;0.42;;;0.40;;
37275;SDS011;23166;51.150;21.620;2022-08-07T09:58:46;0.28;;;0.28;;
37275;SDS011;23166;51.150;21.620;2022-08-07T10:07:01;1.07;;;0.35;;
37275;SDS011;23166;51.150;21.620;2022-08-07T10:15:30;2.10;;;0.40;;
37275;SDS011;23166;51.150;21.620;2022-08-07T10:18:17;4.28;;;0.57;;
37275;SDS011;23166;51.150;21.620;2022-08-07T10:32:53;0.30;;;0.30;;
37275;SDS011;23166;51.150;21.620;2022-08-07T10:40:54;3.30;;;0.68;;
37275;SDS011;23166;51.150;21.620;2022-08-07T10:43:38;0.30;;;0.30;;
37275;SDS011;23166;51.150;21.620;2022-08-07T10:46:17;4.28;;;0.33;;
37275;SDS011;23166;51.150;21.620;2022-08-07T10:48:54;1.75;;;0.57;;
37275;SDS011;23166;51.150;21.620;2022-08-07T10:54:14;0.30;;;0.30;;
37275;SDS011;23166;51.150;21.620;2022-08-07T10:56:45;0.98;;;0.45;;
37275;SDS011;23166;51.150;21.620;2022-08-07T11:05:10;0.40;;;0.10;;
37275;SDS011;23166;51.150;21.620;2022-08-07T11:16:01;0.42;;;0.30;;
37275;SDS011;23166;51.150;21.620;2022-08-07T11:18:41;2.17;;;0.45;;
37275;SDS011;23166;51.150;21.620;2022-08-07T11:21:06;0.42;;;0.20;;
37275;SDS011;23166;51.150;21.620;2022-08-07T11:29:05;1.72;;;0.60;;
37275;SDS011;23166;51.150;21.620;2022-08-07T11:31:42;1.32;;;0.20;;
37275;SDS011;23166;51.150;21.620;2022-08-07T11:34:23;0.10;;;0.10;;
37275;SDS011;23166;51.150;21.620;2022-08-07T11:37:36;0.82;;;0.37;;
37275;SDS011;23166;51.150;21.620;2022-08-07T11:48:37;0.13;;;0.13;;
37275;SDS011;23166;51.150;21.620;2022-08-07T12:01:45;0.40;;;0.20;;
37275;SDS011;23166;51.150;21.620;2022-08-07T12:06:48;0.57;;;0.25;;
37275;SDS011;23166;51.150;21.620;2022-08-07T12:12:27;0.50;;;0.20;;
37275;SDS011;23166;51.150;21.620;2022-08-07T12:15:04;2.87;;;0.40;;
37275;SDS011;23166;51.150;21.620;2022-08-07T12:17:39;0.20;;;0.20;;
37275;SDS011;23166;51.150;21.620;2022-08-07T12:20:21;0.30;;;0.30;;
37275;SDS011;23166;51.150;21.620;2022-08-07T12:23:10;3.17;;;0.45;;
37275;SDS011;23166;51.150;21.620;2022-08-07T12:25:59;0.98;;;0.17;;
37275;SDS011;23166;51.150;21.620;2022-08-07T12:28:30;1.12;;;0.45;;
37275;SDS011;23166;51.150;21.620;2022-08-07T12:31:03;0.65;;;0.20;;
37275;SDS011;23166;51.150;21.620;2022-08-07T12:33:30;0.40;;;0.20;;
37275;SDS011;23166;51.150;21.620;2022-08-07T12:35:57;0.28;;;0.20;;
37275;SDS011;23166;51.150;21.620;2022-08-07T12:38:25;3.67;;;0.23;;
37275;SDS011;23166;51.150;21.620;2022-08-07T12:40:54;0.57;;;0.20;;
37275;SDS011;23166;51.150;21.620;2022-08-07T12:43:23;0.57;;;0.20;;
37275;SDS011;23166;51.150;21.620;2022-08-07T12:48:48;0.47;;;0.42;;
37275;SDS011;23166;51.150;21.620;2022-08-07T12:51:38;0.57;;;0.25;;
37275;SDS011;23166;51.150;21.620;2022-08-07T12:54:14;0.15;;;0.15;;
37275;SDS011;23166;51.150;21.620;2022-08-07T12:56:44;2.45;;;0.20;;
37275;SDS011;23166;51.150;21.620;2022-08-07T12:59:14;0.85;;;0.30;;
37275;SDS011;23166;51.150;21.620;2022-08-07T13:01:49;0.30;;;0.30;;
37275;SDS011;23166;51.150;21.620;2022-08-07T13:15:48;0.20;;;0.17;;
37275;SDS011;23166;51.150;21.620;2022-08-07T13:21:25;2.05;;;0.40;;
37275;SDS011;23166;51.150;21.620;2022-08-07T13:26:45;1.00;;;0.30;;
37275;SDS011;23166;51.150;21.620;2022-08-07T13:29:14;0.33;;;0.30;;
37275;SDS011;23166;51.150;21.620;2022-08-07T13:43:06;6.83;;;1.22;;
37275;SDS011;23166;51.150;21.620;2022-08-07T13:45:35;0.57;;;0.20;;
37275;SDS011;23166;51.150;21.620;2022-08-07T13:48:05;0.55;;;0.30;;
37275;SDS011;23166;51.150;21.620;2022-08-07T13:50:33;2.67;;;0.40;;
37275;SDS011;23166;51.150;21.620;2022-08-07T13:53:01;4.30;;;0.75;;
37275;SDS011;23166;51.150;21.620;2022-08-07T13:55:28;0.30;;;0.30;;
37275;SDS011;23166;51.150;21.620;2022-08-07T13:58:10;0.68;;;0.40;;
37275;SDS011;23166;51.150;21.620;2022-08-07T14:00:57;0.10;;;0.10;;
37275;SDS011;23166;51.150;21.620;2022-08-07T14:03:26;1.45;;;0.20;;
37275;SDS011;23166;51.150;21.620;2022-08-07T14:05:56;0.62;;;0.37;;
37275;SDS011;23166;51.150;21.620;2022-08-07T14:08:46;0.15;;;0.15;;
37275;SDS011;23166;51.150;21.620;2022-08-07T14:11:16;3.15;;;0.20;;
37275;SDS011;23166;51.150;21.620;2022-08-07T14:13:48;1.45;;;0.20;;
37275;SDS011;23166;51.150;21.620;2022-08-07T14:16:28;2.20;;;0.20;;
37275;SDS011;23166;51.150;21.620;2022-08-07T14:18:56;5.62;;;1.15;;
37275;SDS011;23166;51.150;21.620;2022-08-07T14:21:28;2.45;;;0.37;;
37275;SDS011;23166;51.150;21.620;2022-08-07T14:24:00;0.62;;;0.30;;
37275;SDS011;23166;51.150;21.620;2022-08-07T14:26:36;0.62;;;0.30;;
37275;SDS011;23166;51.150;21.620;2022-08-07T14:29:07;0.20;;;0.20;;
37275;SDS011;23166;51.150;21.620;2022-08-07T14:31:36;0.30;;;0.25;;
37275;SDS011;23166;51.150;21.620;2022-08-07T14:34:04;0.10;;;0.10;;
37275;SDS011;23166;51.150;21.620;2022-08-07T14:36:32;0.53;;;0.40;;
37275;SDS011;23166;51.150;21.620;2022-08-07T14:39:03;0.80;;;0.25;;
37275;SDS011;23166;51.150;21.620;2022-08-07T14:41:29;0.50;;;0.17;;
37275;SDS011;23166;51.150;21.620;2022-08-07T14:43:58;1.45;;;0.20;;
37275;SDS011;23166;51.150;21.620;2022-08-07T14:46:28;0.20;;;0.20;;
37275;SDS011;23166;51.150;21.620;2022-08-07T14:48:56;0.28;;;0.25;;
37275;SDS011;23166;51.150;21.620;2022-08-07T14:51:25;0.20;;;0.17;;
37275;SDS011;23166;51.150;21.620;2022-08-07T14:53:54;2.45;;;0.42;;
37275;SDS011;23166;51.150;21.620;2022-08-07T14:56:23;0.85;;;0.33;;
37275;SDS011;23166;51.150;21.620;2022-08-07T14:58:53;0.30;;;0.10;;
37275;SDS011;23166;51.150;21.620;2022-08-07T15:01:26;0.98;;;0.20;;
37275;SDS011;23166;51.150;21.620;2022-08-07T15:04:00;3.12;;;0.40;;
37275;SDS011;23166;51.150;21.620;2022-08-07T15:06:30;0.30;;;0.20;;
37275;SDS011;23166;51.150;21.620;2022-08-07T15:09:10;0.10;;;0.10;;
37275;SDS011;23166;51.150;21.620;2022-08-07T15:11:40;0.10;;;0.10;;
37275;SDS011;23166;51.150;21.620;2022-08-07T15:14:06;0.10;;;0.10;;
37275;SDS011;23166;51.150;21.620;2022-08-07T15:16:41;0.20;;;0.20;;
37275;SDS011;23166;51.150;21.620;2022-08-07T15:19:15;0.13;;;0.13;;
37275;SDS011;23166;51.150;21.620;2022-08-07T15:21:52;0.78;;;0.30;;
37275;SDS011;23166;51.150;21.620;2022-08-07T15:24:24;0.23;;;0.20;;
37275;SDS011;23166;51.150;21.620;2022-08-07T15:27:36;0.20;;;0.20;;
37275;SDS011;23166;51.150;21.620;2022-08-07T15:29:23;1.20;;;0.47;;
37275;SDS011;23166;51.150;21.620;2022-08-07T15:31:53;0.68;;;0.10;;
37275;SDS011;23166;51.150;21.620;2022-08-07T15:34:23;0.95;;;0.50;;
37275;SDS011;23166;51.150;21.620;2022-08-07T15:36:50;0.35;;;0.28;;
37275;SDS011;23166;51.150;21.620;2022-08-07T15:39:18;2.70;;;0.40;;
37275;SDS011;23166;51.150;21.620;2022-08-07T15:42:01;0.78;;;0.25;;
37275;SDS011;23166;51.150;21.620;2022-08-07T15:44:41;3.50;;;0.30;;
37275;SDS011;23166;51.150;21.620;2022-08-07T15:47:13;0.57;;;0.20;;
37275;SDS011;23166;51.150;21.620;2022-08-07T15:49:43;2.08;;;0.45;;
37275;SDS011;23166;51.150;21.620;2022-08-07T15:52:11;4.75;;;0.47;;
37275;SDS011;23166;51.150;21.620;2022-08-07T15:54:39;0.20;;;0.20;;
37275;SDS011;23166;51.150;21.620;2022-08-07T15:57:09;0.23;;;0.23;;
37275;SDS011;23166;51.150;21.620;2022-08-07T15:59:38;0.93;;;0.42;;
37275;SDS011;23166;51.150;21.620;2022-08-07T16:02:07;0.25;;;0.20;;
37275;SDS011;23166;51.150;21.620;2022-08-07T16:04:36;0.40;;;0.40;;
37275;SDS011;23166;51.150;21.620;2022-08-07T16:23:47;0.75;;;0.30;;
37275;SDS011;23166;51.150;21.620;2022-08-07T16:31:38;6.00;;;0.55;;
37275;SDS011;23166;51.150;21.620;2022-08-07T16:34:45;0.57;;;0.37;;
37275;SDS011;23166;51.150;21.620;2022-08-07T16:42:33;0.93;;;0.33;;
37275;SDS011;23166;51.150;21.620;2022-08-07T16:48:24;6.97;;;0.55;;
37275;SDS011;23166;51.150;21.620;2022-08-07T16:56:48;0.20;;;0.20;;
37275;SDS011;23166;51.150;21.620;2022-08-07T17:10:20;0.53;;;0.28;;
37275;SDS011;23166;51.150;21.620;2022-08-07T17:29:48;1.30;;;0.40;;
37275;SDS011;23166;51.150;21.620;2022-08-07T17:32:22;0.37;;;0.37;;
37275;SDS011;23166;51.150;21.620;2022-08-07T17:37:53;0.30;;;0.30;;
37275;SDS011;23166;51.150;21.620;2022-08-07T17:40:46;0.60;;;0.40;;
37275;SDS011;23166;51.150;21.620;2022-08-07T17:43:31;0.23;;;0.23;;
37275;SDS011;23166;51.150;21.620;2022-08-07T17:48:58;0.10;;;0.10;;
37275;SDS011;23166;51.150;21.620;2022-08-07T17:51:45;2.02;;;0.65;;
37275;SDS011;23166;51.150;21.620;2022-08-07T17:54:18;1.95;;;0.42;;
37275;SDS011;23166;51.150;21.620;2022-08-07T17:59:34;1.00;;;0.62;;
37275;SDS011;23166;51.150;21.620;2022-08-07T18:02:16;2.15;;;0.60;;
37275;SDS011;23166;51.150;21.620;2022-08-07T18:04:53;1.30;;;0.50;;
37275;SDS011;23166;51.150;21.620;2022-08-07T18:07:29;1.60;;;0.27;;
37275;SDS011;23166;51.150;21.620;2022-08-07T18:09:58;0.85;;;0.47;;
37275;SDS011;23166;51.150;21.620;2022-08-07T18:15:05;17.07;;;6.53;;
37275;SDS011;23166;51.150;21.620;2022-08-07T18:18:11;24.37;;;9.70;;
37275;SDS011;23166;51.150;21.620;2022-08-07T18:23:06;53.55;;;18.50;;
37275;SDS011;23166;51.150;21.620;2022-08-07T18:25:29;45.30;;;14.87;;
37275;SDS011;23166;51.150;21.620;2022-08-07T18:35:29;18.23;;;6.55;;
37275;SDS011;23166;51.150;21.620;2022-08-07T18:37:59;15.35;;;4.42;;
37275;SDS011;23166;51.150;21.620;2022-08-07T18:40:29;11.95;;;3.33;;
37275;SDS011;23166;51.150;21.620;2022-08-07T18:45:44;5.30;;;1.72;;
37275;SDS011;23166;51.150;21.620;2022-08-07T18:48:00;4.12;;;1.20;;
37275;SDS011;23166;51.150;21.620;2022-08-07T18:55:28;1.55;;;0.70;;
37275;SDS011;23166;51.150;21.620;2022-08-07T19:00:19;2.47;;;1.47;;
37275;SDS011;23166;51.150;21.620;2022-08-07T19:05:27;1.17;;;0.70;;
37275;SDS011;23166;51.150;21.620;2022-08-07T19:10:17;2.08;;;1.10;;
37275;SDS011;23166;51.150;21.620;2022-08-07T19:17:54;4.28;;;1.00;;
37275;SDS011;23166;51.150;21.620;2022-08-07T19:20:16;3.40;;;1.42;;
37275;SDS011;23166;51.150;21.620;2022-08-07T19:25:15;4.33;;;0.93;;
37275;SDS011;23166;51.150;21.620;2022-08-07T19:27:42;1.67;;;0.93;;
37275;SDS011;23166;51.150;21.620;2022-08-07T19:30:11;1.25;;;0.82;;
37275;SDS011;23166;51.150;21.620;2022-08-07T19:32:41;1.10;;;0.95;;
37275;SDS011;23166;51.150;21.620;2022-08-07T19:35:19;1.92;;;1.10;;
37275;SDS011;23166;51.150;21.620;2022-08-07T19:37:39;0.90;;;0.80;;
37275;SDS011;23166;51.150;21.620;2022-08-07T19:40:09;1.40;;;0.70;;
37275;SDS011;23166;51.150;21.620;2022-08-07T19:42:39;1.20;;;0.75;;
37275;SDS011;23166;51.150;21.620;2022-08-07T19:45:11;6.58;;;0.88;;
37275;SDS011;23166;51.150;21.620;2022-08-07T19:47:38;2.22;;;0.62;;
37275;SDS011;23166;51.150;21.620;2022-08-07T19:50:07;2.75;;;0.55;;